Time;durP1;ratioP1;P1;durP2;ratioP2;P2;SDS_P1;SDS_P2;PMS_P1;PMS_P2;Temp;Humidity;BMP_temperature;BMP_pressure;BME280_temperature;BME280_humidity;BME280_pressure;Samples;Min_cycle;Max_cycle;Signal;HPM_P1;HPM_P2
2024/01/14 00:01:56;;;;;;;35.67;17.65;;;0.70;99.90;;;-0.25;100.00;101503.81;4134953;28;20031;-68
2024/01/14 00:03:57;;;;;;;33.40;17.75;;;0.70;99.90;;;-0.27;100.00;101478.88;4136308;28;20015;-68
2024/01/14 00:05:58;;;;;;;32.97;16.77;;;0.70;99.90;;;-0.23;100.00;101501.16;4135290;28;20073;-68
2024/01/14 00:07:59;;;;;;;34.60;18.15;;;0.70;99.90;;;-0.23;100.00;101509.78;4136146;28;20026;-68
2024/01/14 00:10:00;;;;;;;32.92;15.82;;;0.70;99.90;;;-0.21;100.00;101507.94;4134833;28;20034;-68
2024/01/14 00:12:01;;;;;;;35.97;18.30;;;0.70;99.90;;;-0.19;100.00;101506.13;4136107;28;20525;-68
2024/01/14 00:14:01;;;;;;;32.95;16.83;;;0.80;99.90;;;-0.17;100.00;101501.72;4136230;28;20065;-68
2024/01/14 00:16:03;;;;;;;35.03;17.45;;;0.80;99.90;;;-0.17;100.00;101500.88;4136050;28;20113;-68
2024/01/14 00:18:04;;;;;;;34.05;17.63;;;0.80;99.90;;;-0.19;100.00;101498.38;4134825;28;20030;-68
2024/01/14 00:20:06;;;;;;;33.30;17.15;;;0.80;99.90;;;-0.18;100.00;101505.22;4136073;28;20029;-68
2024/01/14 00:22:06;;;;;;;38.55;18.85;;;0.80;99.90;;;-0.17;100.00;101506.06;4136141;28;20033;-68
2024/01/14 00:24:08;;;;;;;34.22;17.08;;;0.80;99.90;;;-0.21;100.00;101489.78;4135924;28;20018;-68
2024/01/14 00:26:08;;;;;;;35.33;17.40;;;0.80;99.90;;;-0.18;100.00;101453.34;4134837;28;20103;-68
2024/01/14 00:28:09;;;;;;;35.63;19.00;;;0.80;99.90;;;-0.20;100.00;101454.34;4134830;28;20158;-68
2024/01/14 00:30:11;;;;;;;35.92;17.60;;;0.80;99.90;;;-0.26;100.00;101455.47;4136017;28;20034;-68
2024/01/14 00:32:12;;;;;;;37.78;19.92;;;0.80;99.90;;;-0.22;100.00;101477.75;4135712;28;20042;-68
2024/01/14 00:34:13;;;;;;;34.75;16.48;;;0.80;99.90;;;-0.21;100.00;101452.69;4136095;28;20073;-68
2024/01/14 00:36:14;;;;;;;36.83;18.88;;;0.80;99.90;;;-0.22;100.00;101467.38;4136031;28;20030;-68
2024/01/14 00:38:15;;;;;;;36.63;18.05;;;0.80;99.90;;;-0.21;100.00;101468.25;4136208;28;20026;-68
2024/01/14 00:40:16;;;;;;;31.13;17.25;;;0.80;99.90;;;-0.19;100.00;101462.06;4135800;28;20034;-68
2024/01/14 00:42:17;;;;;;;33.80;17.50;;;0.80;99.90;;;-0.17;100.00;101449.00;4136007;28;20031;-68
2024/01/14 00:44:17;;;;;;;32.30;17.05;;;0.80;99.90;;;-0.17;100.00;101457.66;4134796;28;20027;-68
2024/01/14 00:46:18;;;;;;;29.73;17.60;;;0.80;99.90;;;-0.17;100.00;101446.41;4135944;28;20108;-68
2024/01/14 00:48:19;;;;;;;36.53;17.88;;;0.80;99.90;;;-0.19;100.00;101435.28;4135270;28;20014;-68
2024/01/14 00:50:21;;;;;;;29.90;16.30;;;0.80;99.90;;;-0.14;100.00;101439.34;4134624;28;20034;-68
2024/01/14 00:52:22;;;;;;;39.40;18.08;;;0.80;99.90;;;-0.11;100.00;101449.59;4134850;28;20045;-68
2024/01/14 00:54:23;;;;;;;37.63;19.85;;;0.80;99.90;;;-0.13;100.00;101443.63;4130122;28;20448;-68
2024/01/14 00:56:24;;;;;;;37.70;18.58;;;0.80;99.90;;;-0.13;100.00;101432.41;4135910;28;20033;-68
2024/01/14 00:58:25;;;;;;;34.95;18.80;;;0.80;99.90;;;-0.14;100.00;101426.38;4138979;28;20034;-68
2024/01/14 01:00:26;;;;;;;31.85;17.50;;;0.80;99.90;;;-0.16;100.00;101428.22;4139159;28;20441;-68
2024/01/14 01:02:27;;;;;;;34.15;17.73;;;0.80;99.90;;;-0.15;100.00;101416.09;4138856;28;20026;-69
2024/01/14 01:04:28;;;;;;;35.80;17.73;;;0.90;99.90;;;-0.13;100.00;101422.91;4137778;28;20513;-68
2024/01/14 01:06:29;;;;;;;34.38;17.60;;;0.90;99.90;;;-0.11;100.00;101412.44;4138789;28;20449;-69
2024/01/14 01:08:29;;;;;;;38.20;18.45;;;0.90;99.90;;;-0.15;100.00;101410.91;4138728;28;20022;-68
2024/01/14 01:10:30;;;;;;;41.00;18.98;;;0.90;99.90;;;-0.19;100.00;101410.22;4139103;28;20031;-69
2024/01/14 01:12:31;;;;;;;39.08;18.52;;;0.80;99.90;;;-0.19;100.00;101420.59;4138585;28;20074;-69
2024/01/14 01:14:32;;;;;;;36.65;17.77;;;0.80;99.90;;;-0.17;100.00;101426.53;4137612;28;20089;-68
2024/01/14 01:16:34;;;;;;;31.23;16.58;;;0.80;99.90;;;-0.17;100.00;101418.75;4138692;28;20038;-68
2024/01/14 01:18:35;;;;;;;35.47;18.80;;;0.80;99.90;;;-0.17;100.00;101423.94;4138608;28;20117;-68
2024/01/14 01:20:36;;;;;;;32.88;17.05;;;0.80;99.90;;;-0.14;100.00;101413.44;4138823;28;20146;-68
2024/01/14 01:22:37;;;;;;;37.25;17.90;;;0.80;99.90;;;-0.12;100.00;101416.78;4138610;28;20019;-69
2024/01/14 01:24:38;;;;;;;40.80;19.10;;;0.80;99.90;;;-0.10;100.00;101407.19;4137512;28;20034;-68
2024/01/14 01:26:39;;;;;;;38.55;19.88;;;0.80;99.90;;;-0.06;100.00;101405.31;4138579;28;20037;-68
2024/01/14 01:28:40;;;;;;;32.70;16.75;;;0.90;99.90;;;-0.07;100.00;101394.09;4137450;28;20506;-68
2024/01/14 01:30:41;;;;;;;35.95;17.55;;;0.90;99.90;;;-0.05;100.00;101394.00;4137320;28;20038;-68
2024/01/14 01:32:41;;;;;;;36.10;18.70;;;0.90;99.90;;;-0.04;100.00;101400.88;4138456;28;20036;-68
2024/01/14 01:34:44;;;;;;;40.13;17.95;;;0.90;99.90;;;-0.08;100.00;101394.13;4138621;28;20037;-68
2024/01/14 01:36:44;;;;;;;35.75;17.80;;;1.00;99.90;;;-0.05;100.00;101394.00;4137417;28;20101;-68
2024/01/14 01:38:45;;;;;;;38.17;18.20;;;0.90;99.90;;;-0.06;100.00;101387.16;4138367;28;20095;-68
2024/01/14 01:40:47;;;;;;;37.47;17.38;;;0.90;99.90;;;-0.05;100.00;101378.44;4120866;28;20034;-68
2024/01/14 01:42:49;;;;;;;34.75;18.17;;;0.90;99.90;;;-0.03;100.00;101364.47;4137235;28;20033;-68
2024/01/14 01:44:50;;;;;;;39.35;17.63;;;0.90;99.90;;;-0.09;100.00;101338.84;4137366;28;20464;-68
2024/01/14 01:46:52;;;;;;;35.10;18.70;;;0.90;99.90;;;-0.07;100.00;101359.53;4136970;28;20030;-68
2024/01/14 01:48:53;;;;;;;41.28;19.77;;;0.90;99.90;;;-0.12;100.00;101344.19;4138617;28;20029;-68
2024/01/14 01:50:56;;;;;;;35.67;19.30;;;0.90;99.90;;;-0.09;100.00;101338.84;4137174;28;20039;-68
2024/01/14 01:52:58;;;;;;;37.83;18.60;;;0.90;99.90;;;-0.12;100.00;101331.22;4137166;28;20026;-69
2024/01/14 01:54:59;;;;;;;34.50;17.92;;;0.90;99.90;;;-0.15;100.00;101327.94;4169453;28;20075;-69
2024/01/14 01:57:00;;;;;;;40.10;19.38;;;0.90;99.90;;;-0.14;100.00;101343.41;4137984;28;20429;-69
2024/01/14 01:59:02;;;;;;;39.72;18.52;;;0.90;99.90;;;-0.07;100.00;101343.97;4136892;28;20042;-69
2024/01/14 02:01:05;;;;;;;38.08;18.95;;;0.90;99.90;;;-0.08;100.00;101348.31;4138027;28;20134;-68
2024/01/14 02:03:07;;;;;;;37.80;18.17;;;0.90;99.90;;;-0.12;100.00;101343.38;4120497;28;20117;-68
2024/01/14 02:05:09;;;;;;;36.53;18.30;;;0.90;99.90;;;-0.04;100.00;101346.41;4138081;28;20047;-68
2024/01/14 02:07:10;;;;;;;40.72;21.00;;;0.90;99.90;;;-0.02;100.00;101342.84;4120667;28;20487;-68
2024/01/14 02:09:11;;;;;;;39.10;19.90;;;0.90;99.90;;;-0.05;100.00;101339.53;4135974;28;20022;-68
2024/01/14 02:11:12;;;;;;;34.50;18.77;;;0.90;99.90;;;-0.01;100.00;101347.13;4137826;28;20042;-69
2024/01/14 02:13:13;;;;;;;37.00;19.77;;;1.00;99.90;;;0.04;100.00;101343.44;4136856;28;20114;-68
2024/01/14 02:15:14;;;;;;;37.03;17.63;;;1.00;99.90;;;0.05;100.00;101347.72;4136931;28;20026;-69
2024/01/14 02:17:15;;;;;;;33.45;18.00;;;1.00;99.90;;;0.05;100.00;101338.19;4137800;28;20490;-68
2024/01/14 02:19:16;;;;;;;37.10;18.42;;;1.00;99.90;;;0.03;100.00;101326.22;4136598;28;20041;-68
2024/01/14 02:21:22;;;;;;;39.60;20.00;;;1.00;99.90;;;-0.01;100.00;101334.16;4136798;28;20027;-69
2024/01/14 02:23:29;;;;;;;32.95;17.05;;;1.00;99.90;;;-0.02;100.00;101332.47;4161751;28;20049;-68
2024/01/14 02:25:31;;;;;;;35.10;17.17;;;1.00;99.90;;;-0.05;100.00;101330.00;4136510;28;20109;-68
2024/01/14 02:27:33;;;;;;;37.33;17.05;;;1.00;99.90;;;0.00;100.00;101332.41;4137866;28;20565;-68
2024/01/14 02:29:38;;;;;;;34.53;17.77;;;1.00;99.90;;;-0.03;100.00;101312.63;4137982;28;20022;-68
2024/01/14 02:31:39;;;;;;;40.70;20.17;;;1.00;99.90;;;0.02;100.00;101329.72;4136344;28;20033;-69
2024/01/14 02:33:40;;;;;;;36.58;19.75;;;1.00;99.90;;;0.02;100.00;101329.72;4136006;28;20520;-69
2024/01/14 02:35:40;;;;;;;36.65;18.02;;;1.00;99.90;;;0.03;100.00;101331.41;4136294;28;20018;-68
2024/01/14 02:37:44;;;;;;;41.30;20.10;;;1.00;99.90;;;0.03;100.00;101318.44;4137891;28;20053;-69
2024/01/14 02:39:44;;;;;;;39.40;18.13;;;1.00;99.90;;;0.03;100.00;101321.03;4137611;28;20513;-68
2024/01/14 02:41:45;;;;;;;32.05;15.73;;;1.00;99.90;;;-0.01;100.00;101316.00;4137424;28;20018;-68
2024/01/14 02:43:46;;;;;;;37.88;17.85;;;1.00;99.90;;;0.02;100.00;101314.16;4137552;28;20019;-69
2024/01/14 02:45:47;;;;;;;35.85;17.65;;;1.00;99.90;;;-0.01;100.00;101323.78;4137548;28;20034;-69
2024/01/14 02:47:48;;;;;;;33.17;16.58;;;1.00;99.90;;;-0.03;100.00;101310.03;4137354;28;20027;-68
2024/01/14 02:49:49;;;;;;;36.65;18.27;;;1.00;99.90;;;0.02;100.00;101314.16;4137398;28;20030;-69
2024/01/14 02:51:49;;;;;;;39.47;19.27;;;1.00;99.90;;;0.03;100.00;101321.03;4137296;28;20050;-68
2024/01/14 02:53:50;;;;;;;32.33;17.60;;;1.00;99.90;;;-0.01;100.00;101313.41;4137475;28;20033;-69
2024/01/14 02:55:51;;;;;;;40.03;18.85;;;1.00;99.90;;;-0.01;100.00;101304.78;4137615;28;20037;-69
2024/01/14 02:57:52;;;;;;;35.97;19.55;;;1.00;99.90;;;0.06;100.00;101313.91;4136168;28;20034;-69
2024/01/14 02:59:53;;;;;;;40.58;18.60;;;1.00;99.90;;;0.09;100.00;101300.78;4137189;28;20041;-68
2024/01/14 03:01:54;;;;;;;40.88;20.23;;;1.00;99.90;;;0.08;100.00;101291.34;4137261;28;20018;-69
2024/01/14 03:03:55;;;;;;;43.35;20.48;;;1.10;99.90;;;0.08;100.00;101303.47;4136126;28;20026;-68
2024/01/14 03:05:55;;;;;;;43.67;20.70;;;1.00;99.90;;;0.07;100.00;101287.06;4137229;28;20027;-69
2024/01/14 03:07:56;;;;;;;38.85;19.55;;;1.10;99.90;;;0.09;100.00;101289.59;4135811;28;20085;-68
2024/01/14 03:09:57;;;;;;;35.70;18.50;;;1.10;99.90;;;0.08;100.00;101283.56;4136961;28;20072;-69
2024/01/14 03:11:58;;;;;;;38.90;19.40;;;1.10;99.90;;;0.07;100.00;101283.63;4136920;28;20042;-68
2024/01/14 03:13:59;;;;;;;40.45;19.40;;;1.10;99.90;;;0.04;100.00;101292.41;4119968;28;20031;-68
2024/01/14 03:16:00;;;;;;;39.47;19.88;;;1.10;99.90;;;0.03;100.00;101295.09;4137060;28;20076;-68
2024/01/14 03:18:00;;;;;;;40.63;19.40;;;1.10;99.90;;;0.05;100.00;101282.88;4135628;28;20509;-68
2024/01/14 03:20:02;;;;;;;37.88;18.55;;;1.10;99.90;;;0.05;100.00;101277.69;4135422;28;20031;-68
2024/01/14 03:22:02;;;;;;;43.03;21.13;;;1.00;99.90;;;0.07;100.00;101273.25;4136191;28;20034;-68
2024/01/14 03:24:04;;;;;;;39.53;19.83;;;1.10;99.90;;;0.06;100.00;101269.81;4135500;28;20112;-68
2024/01/14 03:26:04;;;;;;;38.65;18.13;;;1.00;99.90;;;-0.01;100.00;101277.09;4138637;28;20027;-68
2024/01/14 03:28:05;;;;;;;37.33;19.42;;;1.00;99.90;;;-0.02;100.00;101284.94;4136847;28;20057;-68
2024/01/14 03:30:07;;;;;;;36.67;20.52;;;1.00;99.90;;;-0.04;100.00;101274.66;4136849;28;20033;-68
2024/01/14 03:32:08;;;;;;;37.25;17.88;;;1.00;99.90;;;-0.01;100.00;101271.91;4136332;28;20121;-68
2024/01/14 03:34:08;;;;;;;37.75;18.92;;;0.90;99.90;;;0.00;100.00;101285.72;4135627;28;20026;-68
2024/01/14 03:36:14;;;;;;;43.67;20.25;;;1.00;99.90;;;-0.02;100.00;101297.91;4151698;28;20026;-68
2024/01/14 03:38:15;;;;;;;44.80;19.73;;;1.00;99.90;;;-0.03;100.00;101286.69;4151717;28;20036;-68
2024/01/14 03:40:18;;;;;;;36.75;18.92;;;1.00;99.90;;;-0.03;100.00;101284.09;4135275;28;20030;-68
2024/01/14 03:42:19;;;;;;;40.00;19.42;;;0.90;99.90;;;0.02;100.00;101288.22;4135352;28;20023;-68
2024/01/14 03:44:19;;;;;;;34.95;18.25;;;0.90;99.90;;;0.02;100.00;101291.66;4136945;28;20041;-68
2024/01/14 03:46:20;;;;;;;36.25;19.92;;;0.90;99.90;;;0.06;100.00;101289.75;4136730;28;20048;-68
2024/01/14 03:48:21;;;;;;;39.97;19.48;;;0.90;99.90;;;0.02;100.00;101283.88;4136233;28;20544;-68
2024/01/14 03:50:22;;;;;;;42.83;20.85;;;0.90;99.90;;;0.12;100.00;101294.66;4135423;28;20037;-68
2024/01/14 03:52:23;;;;;;;33.22;17.15;;;1.00;99.90;;;0.12;100.00;101290.28;4136536;28;20030;-68
2024/01/14 03:54:24;;;;;;;36.85;16.95;;;1.00;99.90;;;0.13;100.00;101284.19;4136449;28;20113;-68
2024/01/14 03:56:25;;;;;;;38.05;18.85;;;1.10;99.90;;;0.15;100.00;101284.94;4136348;28;20031;-68
2024/01/14 03:58:25;;;;;;;40.97;20.17;;;1.10;99.90;;;0.13;100.00;101280.75;4136608;28;20027;-68
2024/01/14 04:00:26;;;;;;;38.22;18.77;;;1.10;99.90;;;0.17;100.00;101279.69;4135389;28;20031;-68
2024/01/14 04:02:27;;;;;;;40.60;19.38;;;1.10;99.90;;;0.13;100.00;101270.38;4136029;28;20555;-68
2024/01/14 04:04:28;;;;;;;40.83;19.30;;;1.10;99.90;;;0.17;100.00;101277.94;4134926;28;20477;-68
2024/01/14 04:06:29;;;;;;;37.63;19.52;;;1.10;99.90;;;0.12;100.00;101273.91;4136338;28;20023;-68
2024/01/14 04:08:30;;;;;;;42.30;20.65;;;1.10;99.90;;;0.16;100.00;101281.44;4135076;28;20035;-68
2024/01/14 04:10:30;;;;;;;40.47;19.73;;;1.10;99.90;;;0.19;100.00;101281.28;4118961;28;20027;-68
2024/01/14 04:12:31;;;;;;;37.15;18.80;;;1.10;99.90;;;0.17;100.00;101287.47;4151101;28;20046;-68
2024/01/14 04:14:32;;;;;;;38.83;19.55;;;1.10;99.90;;;0.16;100.00;101286.63;4136192;28;20034;-68
2024/01/14 04:16:40;;;;;;;35.42;17.60;;;1.10;99.90;;;0.16;100.00;101283.19;4136233;28;20061;-68
2024/01/14 04:18:41;;;;;;;39.70;19.40;;;1.10;99.90;;;0.20;100.00;101275.19;4134899;28;20069;-69
2024/01/14 04:20:42;;;;;;;35.15;18.73;;;1.10;99.90;;;0.24;100.00;101265.50;4134779;28;20034;-69
2024/01/14 04:22:43;;;;;;;37.70;17.70;;;1.10;99.90;;;0.21;100.00;101250.91;4134934;28;20083;-69
2024/01/14 04:24:44;;;;;;;32.22;17.13;;;1.20;99.90;;;0.30;100.00;101260.81;4136128;28;20029;-69
2024/01/14 04:26:45;;;;;;;36.25;17.48;;;1.20;99.90;;;0.28;100.00;101254.88;4134702;28;20029;-68
2024/01/14 04:28:46;;;;;;;39.42;18.65;;;1.20;99.90;;;0.32;100.00;101259.00;4134880;28;20030;-69
2024/01/14 04:30:47;;;;;;;34.55;18.65;;;1.30;99.90;;;0.34;100.00;101258.91;4136150;28;20030;-69
2024/01/14 04:32:48;;;;;;;41.08;19.70;;;1.30;99.90;;;0.34;100.00;101251.97;4135145;28;20478;-69
2024/01/14 04:34:49;;;;;;;39.15;18.20;;;1.30;99.90;;;0.34;100.00;101253.72;4136153;28;20031;-68
2024/01/14 04:36:49;;;;;;;38.83;18.80;;;1.30;99.90;;;0.34;100.00;101245.94;4135982;28;20494;-68
2024/01/14 04:38:50;;;;;;;37.63;17.92;;;1.30;99.90;;;0.31;100.00;101256.47;4135710;28;20486;-68
2024/01/14 04:40:51;;;;;;;40.85;21.15;;;1.30;99.90;;;0.27;100.00;101244.59;4136129;28;20440;-68
2024/01/14 04:42:53;;;;;;;38.50;19.23;;;1.20;99.90;;;0.27;100.00;101250.59;4134704;28;20022;-68
2024/01/14 04:44:54;;;;;;;36.75;18.65;;;1.20;99.90;;;0.30;100.00;101247.03;4135968;28;20479;-69
2024/01/14 04:46:55;;;;;;;34.97;17.58;;;1.20;99.90;;;0.33;100.00;101246.88;4135556;28;20018;-68
2024/01/14 04:48:55;;;;;;;38.78;17.95;;;1.30;99.90;;;0.34;100.00;101243.34;4134631;28;20545;-68
2024/01/14 04:50:56;;;;;;;37.95;19.30;;;1.30;99.90;;;0.32;100.00;101233.06;4134795;28;20026;-68
2024/01/14 04:52:57;;;;;;;39.58;18.90;;;1.30;99.90;;;0.34;100.00;101238.16;4135937;28;20030;-69
2024/01/14 04:54:58;;;;;;;34.03;18.38;;;1.30;99.90;;;0.33;100.00;101228.72;4135835;28;20037;-69
2024/01/14 04:56:59;;;;;;;38.38;18.45;;;1.30;99.90;;;0.37;100.00;101233.66;4134855;28;20045;-69
2024/01/14 04:59:00;;;;;;;38.40;20.08;;;1.30;99.90;;;0.38;100.00;101231.91;4134769;28;20098;-69
2024/01/14 05:01:00;;;;;;;37.45;18.58;;;1.30;99.90;;;0.34;100.00;101232.97;4135356;28;20050;-68
2024/01/14 05:03:02;;;;;;;37.47;19.00;;;1.30;99.90;;;0.31;100.00;101233.97;4134309;28;20035;-69
2024/01/14 05:05:03;;;;;;;39.45;18.33;;;1.30;99.90;;;0.35;100.00;101245.03;4135903;28;20058;-68
2024/01/14 05:07:04;;;;;;;38.63;18.45;;;1.30;99.90;;;0.30;100.00;101241.84;4134772;28;20450;-68
2024/01/14 05:09:05;;;;;;;38.47;19.48;;;1.30;99.90;;;0.34;100.00;101233.81;4134605;28;20033;-68
2024/01/14 05:11:06;;;;;;;35.53;18.63;;;1.20;99.90;;;0.37;100.00;101235.41;4135588;28;20022;-68
2024/01/14 05:13:07;;;;;;;36.38;18.35;;;1.30;99.90;;;0.37;100.00;101243.19;4135597;28;20057;-68
2024/01/14 05:15:09;;;;;;;35.47;18.63;;;1.30;99.90;;;0.35;100.00;101240.69;4135919;28;20054;-68
2024/01/14 05:17:10;;;;;;;39.08;18.52;;;1.30;99.90;;;0.38;100.00;101250.06;4135556;28;20038;-68
2024/01/14 05:19:11;;;;;;;35.65;18.23;;;1.30;99.90;;;0.36;100.00;101251.91;4134442;28;20034;-68
2024/01/14 05:21:18;;;;;;;39.00;19.15;;;1.30;99.90;;;0.30;100.00;101244.44;4135741;28;20030;-68
2024/01/14 05:23:19;;;;;;;39.35;19.35;;;1.30;99.90;;;0.26;100.00;101237.72;4135708;28;20034;-68
2024/01/14 05:25:21;;;;;;;36.65;18.65;;;1.20;99.90;;;0.25;100.00;101241.22;4135532;28;20030;-68
2024/01/14 05:27:22;;;;;;;41.60;18.67;;;1.20;99.90;;;0.26;100.00;101242.91;4135641;28;20089;-68
2024/01/14 05:29:22;;;;;;;34.88;17.67;;;1.20;99.90;;;0.27;100.00;101237.63;4134406;28;20027;-68
2024/01/14 05:31:23;;;;;;;42.20;20.63;;;1.20;99.90;;;0.25;100.00;101231.69;4134376;28;20030;-68
2024/01/14 05:33:24;;;;;;;38.45;19.08;;;1.20;99.90;;;0.24;100.00;101235.19;4134343;28;20085;-68
2024/01/14 05:35:25;;;;;;;41.70;20.48;;;1.20;99.90;;;0.25;100.00;101231.69;4134195;28;20030;-68
2024/01/14 05:37:26;;;;;;;41.03;18.70;;;1.20;99.90;;;0.23;100.00;101230.94;4135630;28;20532;-68
2024/01/14 05:39:27;;;;;;;37.28;18.55;;;1.20;99.90;;;0.23;100.00;101236.13;4134200;28;20022;-68
2024/01/14 05:41:28;;;;;;;40.25;18.35;;;1.20;99.90;;;0.25;100.00;101233.44;4135540;28;20120;-68
2024/01/14 05:43:29;;;;;;;36.50;19.95;;;1.20;99.90;;;0.26;100.00;101235.13;4135578;28;20489;-68
2024/01/14 05:45:29;;;;;;;38.38;18.77;;;1.20;99.90;;;0.27;100.00;101237.63;4138283;28;20030;-68
2024/01/14 05:47:30;;;;;;;35.83;18.40;;;1.20;99.90;;;0.26;100.00;101246.34;4137252;28;20023;-68
2024/01/14 05:49:31;;;;;;;36.35;18.15;;;1.20;99.90;;;0.26;100.00;101251.53;4137195;28;20026;-68
2024/01/14 05:51:32;;;;;;;38.08;18.85;;;1.20;99.90;;;0.30;100.00;101250.44;4136960;28;20031;-68
2024/01/14 05:53:33;;;;;;;40.05;17.48;;;1.20;99.90;;;0.30;100.00;101241.84;4137305;28;20022;-68
2024/01/14 05:55:34;;;;;;;38.00;18.77;;;1.20;99.90;;;0.31;100.00;101256.47;4153376;28;20022;-68
2024/01/14 05:57:34;;;;;;;41.72;19.15;;;1.30;99.90;;;0.31;100.00;101239.16;4138219;28;20026;-68
2024/01/14 05:59:35;;;;;;;40.40;19.85;;;1.20;99.90;;;0.33;100.00;101239.91;4138231;28;20029;-68
2024/01/14 06:01:38;;;;;;;29.40;15.63;;;1.30;99.90;;;0.36;100.00;101236.34;4136653;28;20041;-68
2024/01/14 06:03:39;;;;;;;37.50;17.88;;;1.30;99.90;;;0.37;100.00;101236.25;4120819;28;20022;-68
2024/01/14 06:05:40;;;;;;;32.67;18.20;;;1.30;99.90;;;0.40;100.00;101237.84;4138084;28;20069;-68
2024/01/14 06:07:41;;;;;;;32.10;17.75;;;1.30;99.90;;;0.39;100.00;101236.16;4138074;28;20057;-68
2024/01/14 06:09:41;;;;;;;35.42;17.92;;;1.30;99.90;;;0.35;100.00;101230.31;4137772;28;20498;-69
2024/01/14 06:11:42;;;;;;;36.45;18.13;;;1.30;99.90;;;0.36;100.00;101226.75;4138030;28;20038;-68
2024/01/14 06:13:43;;;;;;;34.03;18.05;;;1.30;99.90;;;0.37;100.00;101220.66;4136842;28;20037;-68
2024/01/14 06:15:44;;;;;;;39.55;18.67;;;1.30;99.90;;;0.40;100.00;101232.63;4138001;28;20363;-68
2024/01/14 06:17:45;;;;;;;35.75;18.52;;;1.30;99.90;;;0.40;100.00;101227.44;4136431;28;20030;-68
2024/01/14 06:19:46;;;;;;;35.35;18.52;;;1.30;99.90;;;0.41;100.00;101221.34;4137895;28;20026;-68
2024/01/14 06:21:46;;;;;;;38.50;19.88;;;1.30;99.90;;;0.40;100.00;101217.91;4138029;28;20026;-68
2024/01/14 06:23:49;;;;;;;35.78;18.92;;;1.30;99.90;;;0.41;100.00;101216.16;4136677;28;20026;-68
2024/01/14 06:25:50;;;;;;;38.15;18.65;;;1.30;99.90;;;0.40;100.00;101210.13;4137883;28;20034;-68
2024/01/14 06:27:50;;;;;;;36.95;19.30;;;1.30;99.90;;;0.42;100.00;101210.88;4137855;28;20668;-68
2024/01/14 06:29:51;;;;;;;36.40;17.52;;;1.40;99.90;;;0.43;100.00;101203.94;4137796;28;20453;-68
2024/01/14 06:31:52;;;;;;;35.72;18.20;;;1.40;99.90;;;0.44;100.00;101209.06;4137520;28;20089;-68
2024/01/14 06:33:53;;;;;;;29.83;16.38;;;1.40;99.90;;;0.46;100.00;101211.56;4136616;28;20027;-68
2024/01/14 06:35:54;;;;;;;40.25;19.17;;;1.40;99.90;;;0.43;100.00;101222.09;4137678;28;20102;-68
2024/01/14 06:37:54;;;;;;;38.78;18.52;;;1.40;99.90;;;0.41;100.00;101213.56;4137755;28;20057;-68
2024/01/14 06:39:55;;;;;;;34.22;17.45;;;1.30;99.90;;;0.40;100.00;101219.66;4137501;28;20080;-68
2024/01/14 06:41:56;;;;;;;35.55;18.30;;;1.30;99.90;;;0.39;100.00;101211.03;4137444;28;20030;-68
2024/01/14 06:43:57;;;;;;;32.97;17.73;;;1.30;99.90;;;0.37;100.00;101212.03;4137528;28;20030;-68
2024/01/14 06:45:58;;;;;;;32.92;16.90;;;1.40;99.90;;;0.40;100.00;101209.28;4137470;28;20047;-68
2024/01/14 06:47:58;;;;;;;37.50;18.02;;;1.30;99.90;;;0.43;100.00;101211.72;4137229;28;20402;-68
2024/01/14 06:49:59;;;;;;;38.78;18.63;;;1.30;99.90;;;0.44;100.00;101208.22;4137233;28;20508;-68
2024/01/14 06:52:00;;;;;;;34.08;17.15;;;1.30;99.90;;;0.46;100.00;101216.75;4120067;28;20474;-68
2024/01/14 06:54:01;;;;;;;34.67;18.63;;;1.40;99.90;;;0.45;100.00;101204.69;4137403;28;20405;-68
2024/01/14 06:56:02;;;;;;;30.45;17.08;;;1.40;99.90;;;0.51;100.00;101206.97;4135896;28;20480;-68
2024/01/14 06:58:03;;;;;;;35.17;17.50;;;1.40;99.90;;;0.47;100.00;101192.50;4135925;28;20030;-68
2024/01/14 07:00:05;;;;;;;33.45;17.75;;;1.40;99.90;;;0.44;100.00;101192.66;4119907;28;20039;-68
2024/01/14 07:02:06;;;;;;;32.08;17.33;;;1.40;99.90;;;0.41;100.00;101193.66;4135883;28;20572;-68
2024/01/14 07:04:07;;;;;;;33.33;16.92;;;1.40;99.90;;;0.47;100.00;101203.72;4137237;28;20018;-68
2024/01/14 07:06:08;;;;;;;38.95;18.95;;;1.30;99.90;;;0.43;100.00;101196.16;4137035;28;20030;-68
2024/01/14 07:08:09;;;;;;;34.58;17.45;;;1.30;99.90;;;0.46;100.00;101196.00;4136057;28;20026;-68
2024/01/14 07:10:10;;;;;;;37.53;18.45;;;1.40;99.90;;;0.46;100.00;101191.66;4137113;28;20068;-68
2024/01/14 07:12:11;;;;;;;37.05;17.77;;;1.40;99.90;;;0.46;100.00;101186.47;4135850;28;20045;-68
2024/01/14 07:14:12;;;;;;;35.42;18.90;;;1.40;99.90;;;0.46;100.00;101190.81;4137130;28;20034;-68
2024/01/14 07:16:13;;;;;;;35.67;18.27;;;1.40;99.90;;;0.44;100.00;101203.03;4135848;28;20030;-68
2024/01/14 07:18:14;;;;;;;38.25;18.05;;;1.40;99.90;;;0.40;100.00;101197.16;4135632;28;20026;-68
2024/01/14 07:20:15;;;;;;;40.38;18.80;;;1.40;99.90;;;0.37;100.00;101196.47;4135705;28;20034;-68
2024/01/14 07:22:16;;;;;;;35.08;18.35;;;1.30;99.90;;;0.40;100.00;101206.69;4136887;28;20390;-68
2024/01/14 07:24:17;;;;;;;41.30;19.70;;;1.30;99.90;;;0.37;100.00;101196.47;4136794;28;20026;-68
2024/01/14 07:26:18;;;;;;;36.80;19.05;;;1.30;99.90;;;0.33;100.00;101190.59;4135611;28;20030;-68
2024/01/14 07:28:19;;;;;;;35.22;17.05;;;1.30;99.90;;;0.35;100.00;101187.94;4135690;28;20080;-68
2024/01/14 07:30:20;;;;;;;37.95;17.88;;;1.30;99.90;;;0.38;100.00;101192.97;4136803;28;20125;-68
2024/01/14 07:32:21;;;;;;;39.15;17.25;;;1.30;99.90;;;0.37;100.00;101196.47;4136411;28;20092;-68
2024/01/14 07:34:22;;;;;;;37.70;17.90;;;1.30;99.90;;;0.39;100.00;101205.00;4135667;28;20042;-68
2024/01/14 07:36:24;;;;;;;38.40;19.40;;;1.30;99.90;;;0.43;100.00;101198.75;4135501;28;20053;-68
2024/01/14 07:38:25;;;;;;;44.20;19.95;;;1.30;99.90;;;0.46;100.00;101201.19;4136702;28;20030;-68
2024/01/14 07:40:26;;;;;;;38.80;19.73;;;1.40;99.90;;;0.47;100.00;101203.72;4136453;28;20034;-68
2024/01/14 07:42:26;;;;;;;33.63;17.23;;;1.40;99.90;;;0.49;100.00;101204.47;4135533;28;20023;-68
2024/01/14 07:44:27;;;;;;;42.05;20.73;;;1.50;99.90;;;0.50;100.00;101206.16;4136829;28;20031;-68
2024/01/14 07:46:28;;;;;;;36.53;19.13;;;1.40;99.90;;;0.57;100.00;101207.47;4136327;28;20022;-68
2024/01/14 07:48:29;;;;;;;41.45;19.63;;;1.50;99.90;;;0.60;100.00;101197.88;4136472;28;20401;-68
2024/01/14 07:50:30;;;;;;;44.33;20.60;;;1.50;99.90;;;0.61;100.00;101200.38;4136604;28;20507;-68
2024/01/14 07:52:30;;;;;;;33.70;17.77;;;1.50;99.90;;;0.59;100.00;101203.97;4139492;28;20034;-68
2024/01/14 07:54:31;;;;;;;37.83;19.05;;;1.50;99.90;;;0.63;100.00;101213.28;4124069;28;20023;-68
2024/01/14 07:56:32;;;;;;;36.90;19.40;;;1.50;99.90;;;0.64;100.00;101209.75;4136321;28;20485;-68
2024/01/14 07:58:33;;;;;;;38.95;19.73;;;1.60;99.90;;;0.68;100.00;101204.34;4136419;28;20026;-68
2024/01/14 08:00:34;;;;;;;35.60;17.58;;;1.60;99.90;;;0.71;100.00;101198.97;4136330;28;20038;-68
2024/01/14 08:02:35;;;;;;;38.80;18.80;;;1.60;99.90;;;0.68;100.00;101206.94;4134857;28;20070;-68
2024/01/14 08:04:36;;;;;;;37.97;18.73;;;1.60;99.90;;;0.70;100.00;101199.88;4136227;28;20036;-68
2024/01/14 08:06:36;;;;;;;41.28;19.23;;;1.60;99.90;;;0.72;100.00;101199.81;4134615;28;20399;-68
2024/01/14 08:08:37;;;;;;;42.75;19.50;;;1.60;99.90;;;0.75;100.00;101202.22;4136160;28;20022;-68
2024/01/14 08:10:38;;;;;;;35.15;18.27;;;1.60;99.90;;;0.73;100.00;101196.28;4136343;28;20060;-68
2024/01/14 08:12:39;;;;;;;43.10;18.77;;;1.60;99.90;;;0.74;100.00;101192.78;4135964;28;20055;-68
2024/01/14 08:14:40;;;;;;;38.50;19.02;;;1.70;99.90;;;0.75;100.00;101192.69;4136466;28;20022;-68
2024/01/14 08:16:41;;;;;;;38.33;18.52;;;1.70;99.90;;;0.79;100.00;101199.41;4136217;28;20038;-68